createdAt,value
2019-04-28T00:00:11.455Z,94702.84
2019-04-28T00:02:42.783Z,94707.67
2019-04-28T00:05:12.520Z,94716.89
2019-04-28T00:07:42.075Z,94715.13
2019-04-28T00:10:12.047Z,94721.01
2019-04-28T00:12:41.675Z,94713.33
2019-04-28T00:15:12.473Z,94718.70
2019-04-28T00:17:42.052Z,94717.55
2019-04-28T00:20:13.333Z,94728.03
2019-04-28T00:22:47.259Z,94717.70
2019-04-28T00:25:18.462Z,94729.58
2019-04-28T00:27:48.069Z,94719.84
2019-04-28T00:30:17.762Z,94728.33
2019-04-28T00:32:47.252Z,94731.02
2019-04-28T00:35:16.960Z,94733.74
2019-04-28T00:37:46.585Z,94735.52
2019-04-28T00:40:17.056Z,94736.69
2019-04-28T00:42:46.692Z,94736.91
2019-04-28T00:45:16.385Z,94729.04
2019-04-28T00:47:46.047Z,94739.30
2019-04-28T00:50:15.681Z,94737.98
2019-04-28T00:52:45.164Z,94733.86
2019-04-28T00:55:14.794Z,94727.92
2019-04-28T00:57:44.354Z,94738.34
2019-04-28T01:00:16.494Z,94731.42
2019-04-28T01:02:46.051Z,94739.08
2019-04-28T01:05:15.784Z,94746.05
2019-04-28T01:07:45.348Z,94743.68
2019-04-28T01:10:15.601Z,94735.59
2019-04-28T01:12:46.717Z,94742.09
2019-04-28T01:15:20.189Z,94741.43
2019-04-28T01:17:57.642Z,94750.73
2019-04-28T01:20:27.266Z,94747.55
2019-04-28T01:22:56.773Z,94752.08
2019-04-28T01:25:27.455Z,94743.05
2019-04-28T01:27:57.098Z,94749.19
2019-04-28T01:30:46.453Z,94748.41
2019-04-28T01:33:17.728Z,94746.20
2019-04-28T01:35:49.323Z,94745.94
2019-04-28T01:38:20.414Z,94752.01
2019-04-28T01:40:50.097Z,94745.89
2019-04-28T01:43:19.680Z,94742.36
2019-04-28T01:45:50.262Z,94743.73
2019-04-28T01:48:20.030Z,94746.85
2019-04-28T01:50:50.057Z,94759.06
2019-04-28T01:53:20.024Z,94744.97
2019-04-28T01:55:49.597Z,94741.41
2019-04-28T01:58:20.511Z,94746.36
2019-04-28T02:00:50.638Z,94740.00
2019-04-28T02:03:20.665Z,94730.62
2019-04-28T02:05:50.207Z,94732.78
2019-04-28T02:08:20.378Z,94732.07
2019-04-28T02:10:50.326Z,94733.38
2019-04-28T02:13:20.040Z,94724.78
2019-04-28T02:15:50.053Z,94721.41
2019-04-28T02:18:20.100Z,94723.31
2019-04-28T02:20:51.228Z,94719.45
2019-04-28T02:23:27.753Z,94716.77
2019-04-28T02:25:57.225Z,94719.16
2019-04-28T02:28:26.716Z,94726.70
2019-04-28T02:30:56.306Z,94729.28
2019-04-28T02:33:25.863Z,94728.55
2019-04-28T02:35:55.413Z,94729.47
2019-04-28T02:38:24.938Z,94725.53
2019-04-28T02:40:54.481Z,94730.20
2019-04-28T02:43:23.898Z,94724.45
2019-04-28T02:45:53.707Z,94725.30
2019-04-28T02:48:24.872Z,94733.20
2019-04-28T02:50:56.031Z,94734.78
2019-04-28T02:53:30.938Z,94736.58
2019-04-28T02:56:01.347Z,94737.13
2019-04-28T02:58:31.359Z,94747.48
2019-04-28T03:01:11.237Z,94741.16
2019-04-28T03:03:32.522Z,94748.41
2019-04-28T03:06:02.006Z,94753.08
2019-04-28T03:08:31.520Z,94748.72
2019-04-28T03:11:01.257Z,94760.91
2019-04-28T03:13:31.388Z,94758.84
2019-04-28T03:16:01.843Z,94761.22
2019-04-28T03:18:31.949Z,94763.98
2019-04-28T03:21:04.337Z,94764.70
2019-04-28T03:23:33.089Z,94763.98
2019-04-28T03:26:21.221Z,94771.52
2019-04-28T03:29:00.809Z,94774.28
2019-04-28T03:32:06.102Z,94780.73
2019-04-28T03:34:12.552Z,94777.39
2019-04-28T03:36:40.829Z,94780.45
2019-04-28T03:39:11.678Z,94785.39
2019-04-28T03:41:41.579Z,94786.48
2019-04-28T03:44:11.554Z,94796.47
2019-04-28T03:46:44.224Z,94794.02
2019-04-28T03:49:15.315Z,94807.27
2019-04-28T03:51:44.738Z,94813.30
2019-04-28T03:54:14.157Z,94811.33
2019-04-28T03:56:43.745Z,94815.57
2019-04-28T03:59:13.162Z,94821.70
2019-04-28T04:01:55.386Z,94815.27
2019-04-28T04:04:13.829Z,94814.48
2019-04-28T04:06:43.237Z,94823.70
2019-04-28T04:09:12.771Z,94823.19
2019-04-28T04:11:43.893Z,94823.50
2019-04-28T04:14:15.154Z,94821.98
2019-04-28T04:16:54.899Z,94821.38
2019-04-28T04:19:24.380Z,94818.02
2019-04-28T04:21:53.938Z,94827.89
2019-04-28T04:24:23.677Z,94825.73
2019-04-28T04:26:53.305Z,94832.86
2019-04-28T04:29:23.039Z,94832.36
2019-04-28T04:32:09.443Z,94832.94
2019-04-28T04:34:23.719Z,94820.25
2019-04-28T04:36:53.401Z,94830.83
2019-04-28T04:39:22.879Z,94833.95
2019-04-28T04:41:52.325Z,94845.95
2019-04-28T04:44:21.895Z,94838.98
2019-04-28T04:46:52.345Z,94841.58
2019-04-28T04:49:21.945Z,94841.97
2019-04-28T04:51:51.613Z,94839.82
2019-04-28T04:54:21.133Z,94836.89
2019-04-28T04:56:50.618Z,94845.75
2019-04-28T04:59:20.354Z,94852.55
2019-04-28T05:01:53.939Z,94852.47
2019-04-28T05:04:34.192Z,94839.20
2019-04-28T05:07:05.145Z,94841.50
2019-04-28T05:09:41.848Z,94840.89
2019-04-28T05:12:11.509Z,94789.06
2019-04-28T05:14:50.259Z,94830.50
2019-04-28T05:17:20.379Z,94841.23
2019-04-28T05:19:50.291Z,94842.16
2019-04-28T05:22:21.376Z,94836.08
2019-04-28T05:25:10.074Z,94840.95
2019-04-28T05:27:40.089Z,94844.44
2019-04-28T05:30:13.907Z,94845.02
2019-04-28T05:32:49.416Z,94841.81
2019-04-28T05:35:17.459Z,94840.48
2019-04-28T05:37:49.512Z,94841.08
2019-04-28T05:40:20.558Z,94842.33
2019-04-28T05:43:00.855Z,94846.45
2019-04-28T05:45:32.284Z,94838.27
2019-04-28T05:48:02.055Z,94828.91
2019-04-28T05:50:33.275Z,94821.30
2019-04-28T05:53:10.843Z,94818.78
2019-04-28T05:55:42.241Z,94815.86
2019-04-28T05:58:19.796Z,94835.92
2019-04-28T06:01:07.507Z,94825.22
2019-04-28T06:03:40.412Z,94829.34
2019-04-28T06:06:10.283Z,94828.20
2019-04-28T06:08:56.693Z,94834.16
2019-04-28T06:11:30.805Z,94830.20
2019-04-28T06:14:01.620Z,94821.23
2019-04-28T06:16:31.231Z,94830.53
2019-04-28T06:19:00.719Z,94807.45
2019-04-28T06:21:30.282Z,94795.73
2019-04-28T06:24:00.065Z,94813.00
2019-04-28T06:26:32.418Z,94799.58
2019-04-28T06:29:01.938Z,94787.66
2019-04-28T06:31:32.940Z,94785.11
2019-04-28T06:34:02.544Z,94777.86
2019-04-28T06:36:32.173Z,94783.06
2019-04-28T06:39:01.672Z,94792.59
2019-04-28T06:41:32.786Z,94785.27
2019-04-28T06:44:02.347Z,94769.42
2019-04-28T06:46:31.939Z,94782.49
2019-04-28T06:49:01.442Z,94783.99
2019-04-28T06:51:31.069Z,94772.92
2019-04-28T06:54:00.665Z,94788.35
2019-04-28T06:56:30.298Z,94790.48
2019-04-28T06:58:59.867Z,94780.98
2019-04-28T07:01:29.427Z,94784.27
2019-04-28T07:03:58.918Z,94774.72
2019-04-28T07:06:28.456Z,94780.41
2019-04-28T07:08:57.945Z,94779.78
2019-04-28T07:11:27.610Z,94778.62
2019-04-28T07:13:57.284Z,94785.69
2019-04-28T07:16:26.716Z,94765.50
2019-04-28T07:18:56.212Z,94776.03
2019-04-28T07:21:42.386Z,94769.11
2019-04-28T07:24:11.880Z,94787.84
2019-04-28T07:26:41.455Z,94776.89
2019-04-28T07:29:10.868Z,94782.57
2019-04-28T07:31:40.559Z,94788.77
2019-04-28T07:34:11.319Z,94775.52
2019-04-28T07:36:41.151Z,94782.56
2019-04-28T07:39:10.784Z,94785.84
2019-04-28T07:41:40.368Z,94792.58
2019-04-28T07:44:09.933Z,94802.06
2019-04-28T07:46:39.414Z,94796.68
2019-04-28T07:49:09.034Z,94807.27
2019-04-28T07:51:52.000Z,94804.05
2019-04-28T07:54:22.292Z,94809.02
2019-04-28T07:56:51.781Z,94797.03
2019-04-28T07:59:21.432Z,94791.80
2019-04-28T08:01:51.174Z,94805.09
2019-04-28T08:04:20.674Z,94792.35
2019-04-28T08:06:51.286Z,94800.59
2019-04-28T08:09:20.845Z,94795.23
2019-04-28T08:11:50.471Z,94796.92
2019-04-28T08:14:20.098Z,94786.22
2019-04-28T08:16:49.464Z,94792.80
2019-04-28T08:19:18.987Z,94788.65
2019-04-28T08:21:48.497Z,94790.22
2019-04-28T08:24:17.973Z,94779.84
2019-04-28T08:26:47.479Z,94783.38
2019-04-28T08:29:16.972Z,94765.28
2019-04-28T08:31:53.833Z,94778.14
2019-04-28T08:34:23.483Z,94781.58
2019-04-28T08:36:52.961Z,94782.03
2019-04-28T08:39:25.039Z,94783.47
2019-04-28T08:41:53.811Z,94737.39
2019-04-28T08:44:23.524Z,94764.89
2019-04-28T08:46:53.077Z,94773.55
2019-04-28T08:49:22.640Z,94782.52
2019-04-28T08:51:53.435Z,94762.14
2019-04-28T08:54:23.004Z,94765.02
2019-04-28T08:56:52.498Z,94784.59
2019-04-28T08:59:21.984Z,94776.92
2019-04-28T09:01:51.573Z,94764.03
2019-04-28T09:04:21.139Z,94755.05
2019-04-28T09:06:50.618Z,94750.25
2019-04-28T09:09:21.752Z,94754.76
2019-04-28T09:11:51.307Z,94757.48
2019-04-28T09:14:20.903Z,94761.52
2019-04-28T09:16:50.408Z,94759.70
2019-04-28T09:19:19.967Z,94739.27
2019-04-28T09:21:49.944Z,94749.09
2019-04-28T09:24:26.343Z,94776.92
2019-04-28T09:26:55.859Z,94766.20
2019-04-28T09:29:25.411Z,94759.13
2019-04-28T09:31:56.481Z,94754.66
2019-04-28T09:34:28.522Z,94754.70
2019-04-28T09:36:57.524Z,94741.47
2019-04-28T09:39:43.718Z,94748.17
2019-04-28T09:42:33.446Z,94764.13
2019-04-28T09:45:04.649Z,94759.63
2019-04-28T09:47:34.347Z,94761.63
2019-04-28T09:50:05.000Z,94750.92
2019-04-28T09:52:35.694Z,94747.06
2019-04-28T09:55:07.607Z,94741.15
2019-04-28T09:57:37.218Z,94751.23
2019-04-28T10:00:09.925Z,94740.62
2019-04-28T10:02:39.528Z,94747.72
2019-04-28T10:05:10.172Z,94744.22
2019-04-28T10:07:39.778Z,94718.84
2019-04-28T10:10:09.740Z,94721.41
2019-04-28T10:12:39.377Z,94718.23
2019-04-28T10:15:10.180Z,94698.56
2019-04-28T10:17:39.894Z,94721.72
2019-04-28T10:20:09.670Z,94719.27
2019-04-28T10:22:39.089Z,94723.86
2019-04-28T10:25:09.161Z,94712.03
2019-04-28T10:27:41.683Z,94725.78
2019-04-28T10:30:14.044Z,94721.13
2019-04-28T10:32:43.741Z,94720.11
2019-04-28T10:35:13.399Z,94712.67
2019-04-28T10:37:45.507Z,94697.36
2019-04-28T10:40:18.885Z,94698.09
2019-04-28T10:42:48.418Z,94702.05
2019-04-28T10:45:20.531Z,94696.65
2019-04-28T10:47:50.159Z,94695.43
2019-04-28T10:50:20.289Z,94691.81
2019-04-28T10:52:49.722Z,94679.38
2019-04-28T10:55:19.207Z,94696.12
2019-04-28T10:57:48.694Z,94677.85
2019-04-28T11:00:20.022Z,94678.88
2019-04-28T11:02:49.661Z,94673.37
2019-04-28T11:05:29.466Z,94678.66
2019-04-28T11:07:59.394Z,94668.03
2019-04-28T11:10:28.911Z,94657.37
2019-04-28T11:12:58.655Z,94649.80
2019-04-28T11:15:37.853Z,94636.22
2019-04-28T11:18:09.150Z,94645.34
2019-04-28T11:20:38.718Z,94649.36
2019-04-28T11:23:08.640Z,94656.55
2019-04-28T11:25:39.170Z,94649.86
2019-04-28T11:28:08.843Z,94645.49
2019-04-28T11:30:38.398Z,94648.80
2019-04-28T11:33:26.719Z,94644.08
2019-04-28T11:35:57.246Z,94635.71
2019-04-28T11:38:26.725Z,94636.34
2019-04-28T11:40:56.285Z,94625.70
2019-04-28T11:43:26.916Z,94631.64
2019-04-28T11:45:56.481Z,94636.67
2019-04-28T11:48:26.001Z,94625.41
2019-04-28T11:50:55.491Z,94629.98
2019-04-28T11:53:24.917Z,94628.98
2019-04-28T11:55:54.527Z,94632.57
2019-04-28T11:58:24.513Z,94630.02
2019-04-28T12:00:54.174Z,94629.79
2019-04-28T12:03:23.727Z,94618.88
2019-04-28T12:05:53.219Z,94618.83
2019-04-28T12:08:23.439Z,94618.31
2019-04-28T12:10:54.603Z,94621.73
2019-04-28T12:13:37.957Z,94613.56
2019-04-28T12:16:09.213Z,94609.20
2019-04-28T12:18:43.064Z,94608.17
2019-04-28T12:21:12.632Z,94593.55
2019-04-28T12:23:43.386Z,94598.72
2019-04-28T12:26:12.991Z,94605.11
2019-04-28T12:28:42.547Z,94595.25
2019-04-28T12:31:12.183Z,94591.59
2019-04-28T12:33:41.679Z,94581.12
2019-04-28T12:36:11.243Z,94579.78
2019-04-28T12:38:40.662Z,94576.87
2019-04-28T12:41:10.151Z,94573.95
2019-04-28T12:43:39.709Z,94596.58
2019-04-28T12:46:09.205Z,94583.68
2019-04-28T12:48:38.660Z,94581.55
2019-04-28T12:51:08.225Z,94561.80
2019-04-28T12:53:39.470Z,94570.24
2019-04-28T12:56:09.022Z,94556.05
2019-04-28T12:58:39.507Z,94566.45
2019-04-28T13:01:29.922Z,94561.86
2019-04-28T13:04:12.846Z,94565.31
2019-04-28T13:06:44.073Z,94551.14
2019-04-28T13:09:14.435Z,94554.53
2019-04-28T13:11:44.001Z,94550.39
2019-04-28T13:14:13.537Z,94543.22
2019-04-28T13:16:43.031Z,94537.01
2019-04-28T13:19:12.517Z,94534.16
2019-04-28T13:21:41.980Z,94535.16
2019-04-28T13:24:11.533Z,94532.86
2019-04-28T13:26:41.031Z,94528.73
2019-04-28T13:29:10.670Z,94526.11
2019-04-28T13:31:40.154Z,94527.11
2019-04-28T13:34:11.343Z,94520.63
2019-04-28T13:36:40.953Z,94521.87
2019-04-28T13:39:12.507Z,94527.91
2019-04-28T13:41:41.928Z,94530.83
2019-04-28T13:44:13.120Z,94532.50
2019-04-28T13:46:42.681Z,94514.41
2019-04-28T13:49:13.897Z,94515.73
2019-04-28T13:51:43.465Z,94505.85
2019-04-28T13:54:14.628Z,94508.95
2019-04-28T13:56:44.206Z,94504.31
2019-04-28T13:59:15.394Z,94511.80
2019-04-28T14:01:52.425Z,94504.63
2019-04-28T14:04:26.439Z,94515.08
2019-04-28T14:06:56.945Z,94505.56
2019-04-28T14:09:27.012Z,94506.09
2019-04-28T14:11:56.537Z,94505.98
2019-04-28T14:14:26.051Z,94506.31
2019-04-28T14:16:56.010Z,94497.63
2019-04-28T14:19:25.673Z,94487.56
2019-04-28T14:21:55.227Z,94500.38
2019-04-28T14:24:24.788Z,94485.00
2019-04-28T14:26:54.402Z,94487.64
2019-04-28T14:29:23.857Z,94481.38
2019-04-28T14:31:53.326Z,94475.11
2019-04-28T14:34:22.845Z,94474.84
2019-04-28T14:36:52.505Z,94471.20
2019-04-28T14:39:22.064Z,94474.33
2019-04-28T14:41:51.625Z,94478.75
2019-04-28T14:44:21.225Z,94476.63
2019-04-28T14:46:50.773Z,94471.41
2019-04-28T14:49:20.272Z,94487.59
2019-04-28T14:51:49.791Z,94478.47
2019-04-28T14:54:19.254Z,94481.09
2019-04-28T14:56:48.641Z,94465.19
2019-04-28T14:59:19.207Z,94471.19
2019-04-28T15:02:07.061Z,94460.21
2019-04-28T15:04:53.378Z,94462.55
2019-04-28T15:07:39.676Z,94482.98
2019-04-28T15:10:17.332Z,94482.42
2019-04-28T15:12:46.888Z,94473.64
2019-04-28T15:15:16.584Z,94473.50
2019-04-28T15:17:47.697Z,94472.22
2019-04-28T15:20:17.277Z,94472.71
2019-04-28T15:22:46.842Z,94480.19
2019-04-28T15:25:16.395Z,94476.47
2019-04-28T15:27:45.898Z,94473.42
2019-04-28T15:30:15.628Z,94466.97
2019-04-28T15:32:45.151Z,94469.83
2019-04-28T15:35:14.963Z,94464.38
2019-04-28T15:37:44.554Z,94453.41
2019-04-28T15:40:14.215Z,94463.83
2019-04-28T15:42:43.884Z,94447.95
2019-04-28T15:45:13.750Z,94466.96
2019-04-28T15:47:43.647Z,94444.98
2019-04-28T15:50:13.316Z,94462.41
2019-04-28T15:52:42.806Z,94465.02
2019-04-28T15:55:14.010Z,94465.45
2019-04-28T15:57:43.684Z,94467.52
2019-04-28T16:00:22.114Z,94463.73
2019-04-28T16:03:01.809Z,94468.34
2019-04-28T16:05:31.913Z,94460.05
2019-04-28T16:08:08.689Z,94470.48
2019-04-28T16:10:41.085Z,94473.53
2019-04-28T16:13:10.540Z,94468.73
2019-04-28T16:15:40.108Z,94469.19
2019-04-28T16:18:09.721Z,94473.33
2019-04-28T16:20:39.314Z,94463.16
2019-04-28T16:23:08.903Z,94464.79
2019-04-28T16:25:41.447Z,94457.64
2019-04-28T16:28:11.193Z,94464.35
2019-04-28T16:30:40.829Z,94468.48
2019-04-28T16:33:10.316Z,94463.17
2019-04-28T16:35:39.762Z,94463.83
2019-04-28T16:38:09.322Z,94460.45
2019-04-28T16:40:39.306Z,94464.67
2019-04-28T16:43:10.781Z,94470.89
2019-04-28T16:45:40.436Z,94467.18
2019-04-28T16:48:09.998Z,94472.88
2019-04-28T16:50:39.804Z,94469.88
2019-04-28T16:53:09.351Z,94476.16
2019-04-28T16:55:46.304Z,94489.86
2019-04-28T16:58:32.663Z,94493.33
2019-04-28T17:01:03.850Z,94498.50
2019-04-28T17:03:34.976Z,94495.10
2019-04-28T17:06:04.839Z,94512.74
2019-04-28T17:08:34.334Z,94523.11
2019-04-28T17:11:03.910Z,94525.09
2019-04-28T17:13:33.562Z,94521.06
2019-04-28T17:16:03.011Z,94524.14
2019-04-28T17:18:32.566Z,94521.34
2019-04-28T17:21:01.993Z,94526.36
2019-04-28T17:23:31.733Z,94525.66
2019-04-28T17:26:01.296Z,94516.66
2019-04-28T17:28:30.958Z,94539.09
2019-04-28T17:31:00.653Z,94532.61
2019-04-28T17:33:30.136Z,94532.68
2019-04-28T17:35:59.803Z,94529.11
2019-04-28T17:38:29.285Z,94541.86
2019-04-28T17:40:58.848Z,94538.18
2019-04-28T17:43:28.437Z,94546.36
2019-04-28T17:45:57.996Z,94552.71
2019-04-28T17:48:32.237Z,94551.06
2019-04-28T17:51:02.105Z,94559.70
2019-04-28T17:53:31.540Z,94559.09
2019-04-28T17:56:01.270Z,94556.03
2019-04-28T17:58:30.856Z,94559.41
2019-04-28T18:01:04.899Z,94559.47
2019-04-28T18:03:52.088Z,94566.89
2019-04-28T18:06:23.388Z,94565.47
2019-04-28T18:08:53.009Z,94562.21
2019-04-28T18:11:22.506Z,94568.56
2019-04-28T18:13:51.988Z,94569.66
2019-04-28T18:16:39.279Z,94568.09
2019-04-28T18:19:10.484Z,94572.39
2019-04-28T18:21:40.032Z,94576.30
2019-04-28T18:24:09.791Z,94580.42
2019-04-28T18:26:39.425Z,94587.63
2019-04-28T18:29:09.070Z,94594.52
2019-04-28T18:31:56.476Z,94591.30
2019-04-28T18:34:27.757Z,94599.23
2019-04-28T18:37:05.006Z,94609.12
2019-04-28T18:39:36.279Z,94598.10
2019-04-28T18:42:19.331Z,94610.42
2019-04-28T18:44:48.909Z,94608.98
2019-04-28T18:47:18.480Z,94613.52
2019-04-28T18:49:47.973Z,94615.15
2019-04-28T18:52:17.530Z,94624.04
2019-04-28T18:54:47.110Z,94620.04
2019-04-28T18:57:16.701Z,94622.48
2019-04-28T18:59:46.204Z,94633.60
2019-04-28T19:02:17.573Z,94639.23
2019-04-28T19:04:46.990Z,94630.09
2019-04-28T19:07:18.286Z,94633.37
2019-04-28T19:09:49.687Z,94627.33
2019-04-28T19:12:21.065Z,94632.38
2019-04-28T19:15:08.607Z,94631.79
2019-04-28T19:17:42.787Z,94634.86
2019-04-28T19:20:13.813Z,94635.07
2019-04-28T19:22:47.267Z,94640.57
2019-04-28T19:25:17.922Z,94650.15
2019-04-28T19:27:47.566Z,94656.22
2019-04-28T19:30:17.130Z,94656.47
2019-04-28T19:32:46.618Z,94660.59
2019-04-28T19:35:16.271Z,94651.59
2019-04-28T19:37:45.842Z,94658.66
2019-04-28T19:40:15.566Z,94658.99
2019-04-28T19:42:45.123Z,94656.60
2019-04-28T19:45:16.398Z,94650.91
2019-04-28T19:47:45.966Z,94662.02
2019-04-28T19:50:15.593Z,94664.72
2019-04-28T19:52:45.220Z,94660.84
2019-04-28T19:55:22.347Z,94665.61
2019-04-28T19:58:05.652Z,94665.63
2019-04-28T20:00:52.179Z,94666.55
2019-04-28T20:03:21.739Z,94671.72
2019-04-28T20:05:51.274Z,94660.06
2019-04-28T20:08:21.869Z,94661.87
2019-04-28T20:10:51.405Z,94671.38
2019-04-28T20:13:20.891Z,94675.37
2019-04-28T20:18:48.803Z,94667.20
2019-04-28T20:21:19.944Z,94657.34
2019-04-28T20:23:49.614Z,94668.16
2019-04-28T20:26:19.249Z,94669.20
2019-04-28T20:28:48.905Z,94665.22
2019-04-28T20:31:18.455Z,94665.41
2019-04-28T20:33:48.010Z,94673.98
2019-04-28T20:36:19.197Z,94670.95
2019-04-28T20:38:50.497Z,94662.71
2019-04-28T20:41:24.420Z,94669.98
2019-04-28T20:43:55.007Z,94660.38
2019-04-28T20:46:24.732Z,94662.62
2019-04-28T20:48:54.364Z,94663.45
2019-04-28T20:51:23.891Z,94659.84
2019-04-28T20:53:53.597Z,94659.14
2019-04-28T20:56:23.458Z,94659.79
2019-04-28T20:58:52.906Z,94656.09
2019-04-28T21:01:22.400Z,94654.17
2019-04-28T21:03:52.046Z,94659.48
2019-04-28T21:06:21.562Z,94653.02
2019-04-28T21:08:50.979Z,94652.04
2019-04-28T21:11:20.535Z,94653.30
2019-04-28T21:13:50.094Z,94658.23
2019-04-28T21:16:19.590Z,94659.61
2019-04-28T21:18:48.986Z,94659.81
2019-04-28T21:21:18.510Z,94659.56
2019-04-28T21:23:47.976Z,94658.27
2019-04-28T21:26:17.460Z,94660.41
2019-04-28T21:28:47.174Z,94663.46
2019-04-28T21:31:16.577Z,94658.45
2019-04-28T21:33:46.081Z,94663.16
2019-04-28T21:36:16.563Z,94663.47
2019-04-28T21:38:47.758Z,94665.80
2019-04-28T21:41:18.446Z,94661.62
2019-04-28T21:43:52.507Z,94662.89
2019-04-28T21:46:23.675Z,94650.63
2019-04-28T21:48:54.805Z,94656.59
2019-04-28T21:51:24.331Z,94662.73
2019-04-28T21:53:53.807Z,94663.95
2019-04-28T21:56:23.295Z,94660.64
2019-04-28T21:58:52.776Z,94667.14
2019-04-28T22:01:23.203Z,94662.09
2019-04-28T22:03:52.894Z,94657.55
2019-04-28T22:06:22.665Z,94661.18
2019-04-28T22:08:52.148Z,94661.80
2019-04-28T22:11:21.704Z,94661.89
2019-04-28T22:13:51.253Z,94662.14
2019-04-28T22:16:20.938Z,94661.93
2019-04-28T22:18:50.663Z,94664.08
2019-04-28T22:21:21.215Z,94667.14
2019-04-28T22:23:52.269Z,94670.63
2019-04-28T22:26:39.341Z,94663.02
2019-04-28T22:29:08.889Z,94665.48
2019-04-28T22:31:38.401Z,94656.44
2019-04-28T22:34:07.925Z,94663.20
2019-04-28T22:36:37.484Z,94659.84
2019-04-28T22:39:08.237Z,94664.98
2019-04-28T22:41:39.406Z,94658.36
2019-04-28T22:44:09.204Z,94666.67
2019-04-28T22:46:38.850Z,94656.39
2019-04-28T22:49:08.432Z,94664.89
2019-04-28T22:51:38.061Z,94662.05
2019-04-28T22:54:09.239Z,94671.84
2019-04-28T22:56:40.409Z,94669.46
2019-04-28T22:59:11.828Z,94661.94
2019-04-28T23:01:45.848Z,94674.98
2019-04-28T23:04:17.110Z,94667.29
2019-04-28T23:06:46.626Z,94665.00
2019-04-28T23:09:17.821Z,94659.17
2019-04-28T23:11:47.453Z,94670.63
2019-04-28T23:14:16.933Z,94667.76
2019-04-28T23:16:46.482Z,94658.69
2019-04-28T23:19:17.646Z,94663.03
2019-04-28T23:21:48.835Z,94660.47
2019-04-28T23:24:18.362Z,94661.75
2019-04-28T23:26:47.906Z,94660.84
2019-04-28T23:29:17.464Z,94652.83
2019-04-28T23:31:47.159Z,94651.75
2019-04-28T23:34:16.688Z,94651.66
2019-04-28T23:36:46.164Z,94651.55
2019-04-28T23:39:15.749Z,94653.93
2019-04-28T23:41:46.943Z,94642.17
2019-04-28T23:44:16.527Z,94648.30
2019-04-28T23:46:56.130Z,94636.02
2019-04-28T23:49:27.406Z,94630.27
2019-04-28T23:52:01.475Z,94631.96
2019-04-28T23:54:31.129Z,94630.07
2019-04-28T23:57:00.679Z,94630.64
2019-04-28T23:59:30.150Z,94623.48
